createdAt,value
2022-10-29T00:00:56.263Z,73.40
2022-10-29T00:03:27.869Z,73.47
2022-10-29T00:06:00.907Z,73.04
2022-10-29T00:08:33.050Z,73.10
2022-10-29T00:11:21.517Z,72.99
2022-10-29T00:13:54.931Z,72.97
2022-10-29T00:16:28.242Z,72.87
2022-10-29T00:18:58.601Z,72.89
2022-10-29T00:21:29.096Z,73.10
2022-10-29T00:23:59.983Z,73.28
2022-10-29T00:26:30.968Z,73.20
2022-10-29T00:29:01.459Z,73.34
2022-10-29T00:31:31.859Z,73.69
2022-10-29T00:34:02.501Z,74.16
2022-10-29T00:36:32.891Z,74.16
2022-10-29T00:39:03.282Z,74.24
2022-10-29T00:41:33.694Z,74.29
2022-10-29T00:44:22.227Z,74.45
2022-10-29T00:46:55.696Z,74.48
2022-10-29T00:49:27.495Z,74.93
2022-10-29T00:51:58.861Z,74.90
2022-10-29T00:54:31.116Z,75.34
2022-10-29T00:57:07.282Z,75.61
2022-10-29T00:59:37.951Z,75.34
2022-10-29T01:02:08.605Z,75.77
2022-10-29T01:04:40.470Z,75.90
2022-10-29T01:07:11.699Z,76.11
2022-10-29T01:09:42.538Z,76.01
2022-10-29T01:15:29.553Z,76.65
2022-10-29T01:18:02.997Z,76.97
2022-10-29T01:20:39.304Z,77.05
2022-10-29T01:23:27.120Z,77.32
2022-10-29T01:26:15.711Z,77.56
2022-10-29T01:29:00.873Z,77.84
2022-10-29T01:31:43.264Z,78.06
2022-10-29T01:34:39.303Z,77.38
2022-10-29T01:37:31.077Z,77.49
2022-10-29T01:40:27.494Z,78.33
2022-10-29T01:43:06.672Z,78.62
2022-10-29T01:45:40.279Z,78.53
2022-10-29T01:48:18.152Z,78.77
2022-10-29T01:50:51.609Z,78.32
2022-10-29T01:53:22.659Z,78.83
2022-10-29T01:55:53.047Z,79.14
2022-10-29T01:58:26.163Z,79.46
2022-10-29T02:01:05.471Z,79.51
2022-10-29T02:03:38.927Z,79.76
2022-10-29T02:06:32.014Z,79.81
2022-10-29T02:09:14.380Z,80.06
2022-10-29T02:11:53.918Z,79.97
2022-10-29T02:14:36.214Z,80.20
2022-10-29T02:17:08.277Z,80.44
2022-10-29T02:19:38.712Z,80.54
2022-10-29T02:22:09.191Z,80.69
2022-10-29T02:24:39.577Z,80.76
2022-10-29T02:27:10.056Z,80.66
2022-10-29T02:29:40.539Z,80.84
2022-10-29T02:32:11.033Z,80.58
2022-10-29T02:34:41.300Z,80.84
2022-10-29T02:37:11.702Z,80.60
2022-10-29T02:39:42.200Z,80.77
2022-10-29T02:42:12.599Z,80.80
2022-10-29T02:44:42.967Z,80.70
2022-10-29T02:47:13.311Z,80.74
2022-10-29T02:49:43.849Z,81.08
2022-10-29T02:52:14.273Z,81.05
2022-10-29T02:54:44.737Z,81.24
2022-10-29T02:57:15.238Z,81.25
2022-10-29T02:59:45.641Z,81.07
2022-10-29T03:02:16.098Z,81.26
2022-10-29T03:04:46.614Z,80.93
2022-10-29T03:07:16.993Z,80.73
2022-10-29T03:09:47.375Z,81.01
2022-10-29T03:12:17.789Z,81.32
2022-10-29T03:14:48.200Z,81.41
2022-10-29T03:17:18.533Z,81.70
2022-10-29T03:19:48.916Z,81.70
2022-10-29T03:22:19.375Z,81.93
2022-10-29T03:24:49.789Z,82.00
2022-10-29T03:27:20.214Z,82.15
2022-10-29T03:29:50.526Z,82.18
2022-10-29T03:32:20.932Z,82.41
2022-10-29T03:34:54.710Z,82.57
2022-10-29T03:37:23.304Z,82.81
2022-10-29T03:39:53.755Z,83.04
2022-10-29T03:42:24.171Z,83.16
2022-10-29T03:44:54.544Z,82.71
2022-10-29T03:47:24.935Z,83.22
2022-10-29T03:49:56.147Z,83.28
2022-10-29T03:52:26.478Z,82.67
2022-10-29T03:54:57.002Z,83.00
2022-10-29T03:57:27.341Z,82.92
2022-10-29T03:59:57.632Z,83.22
2022-10-29T04:02:28.603Z,83.25
2022-10-29T04:04:59.177Z,82.94
2022-10-29T04:07:29.510Z,82.97
2022-10-29T04:09:59.981Z,83.22
2022-10-29T04:12:30.363Z,83.01
2022-10-29T04:15:01.063Z,82.74
2022-10-29T04:17:31.454Z,82.77
2022-10-29T04:20:01.835Z,82.72
2022-10-29T04:24:12.199Z,82.62
2022-10-29T04:30:09.619Z,83.23
2022-10-29T04:32:40.075Z,83.28
2022-10-29T04:35:10.525Z,83.41
2022-10-29T04:37:40.968Z,83.49
2022-10-29T04:40:13.414Z,83.44
2022-10-29T04:42:43.780Z,83.57
2022-10-29T04:45:14.093Z,83.69
2022-10-29T04:47:44.526Z,83.85
2022-10-29T04:50:15.032Z,83.73
2022-10-29T04:52:45.468Z,83.94
2022-10-29T04:55:16.119Z,83.95
2022-10-29T04:57:50.780Z,83.94
2022-10-29T05:00:21.634Z,83.89
2022-10-29T05:02:53.725Z,83.69
2022-10-29T05:05:24.661Z,83.75
2022-10-29T05:07:59.620Z,83.76
2022-10-29T05:10:32.394Z,83.83
2022-10-29T05:13:07.099Z,84.04
2022-10-29T05:15:38.228Z,84.08
2022-10-29T05:18:09.001Z,84.17
2022-10-29T05:20:39.466Z,84.24
2022-10-29T05:23:12.412Z,84.16
2022-10-29T05:25:43.002Z,84.25
2022-10-29T05:28:17.555Z,84.32
2022-10-29T05:30:49.593Z,84.25
2022-10-29T05:33:23.253Z,84.41
2022-10-29T05:35:53.627Z,84.08
2022-10-29T05:38:23.965Z,84.50
2022-10-29T05:40:54.277Z,84.46
2022-10-29T05:43:24.576Z,84.46
2022-10-29T05:45:55.296Z,84.16
2022-10-29T05:48:25.708Z,84.25
2022-10-29T05:50:58.063Z,84.17
2022-10-29T05:53:28.468Z,84.05
2022-10-29T05:55:59.990Z,84.49
2022-10-29T05:58:30.398Z,84.67
2022-10-29T06:01:00.802Z,84.81
2022-10-29T06:03:31.268Z,85.02
2022-10-29T06:06:01.801Z,85.21
2022-10-29T06:08:32.166Z,84.98
2022-10-29T06:11:03.453Z,85.09
2022-10-29T06:13:33.989Z,85.08
2022-10-29T06:16:04.569Z,85.25
2022-10-29T06:18:34.956Z,85.37
2022-10-29T06:21:05.811Z,85.24
2022-10-29T06:23:36.200Z,85.24
2022-10-29T06:26:06.775Z,85.25
2022-10-29T06:28:37.181Z,85.35
2022-10-29T06:31:07.567Z,85.39
2022-10-29T06:33:37.919Z,85.45
2022-10-29T06:36:08.565Z,85.32
2022-10-29T06:38:39.220Z,85.47
2022-10-29T06:41:09.926Z,85.45
2022-10-29T06:43:40.332Z,85.26
2022-10-29T06:46:10.770Z,85.12
2022-10-29T06:48:41.136Z,85.24
2022-10-29T06:51:11.610Z,85.31
2022-10-29T06:53:42.050Z,85.11
2022-10-29T06:56:12.422Z,85.15
2022-10-29T06:58:42.816Z,85.04
2022-10-29T07:01:13.251Z,84.72
2022-10-29T07:03:43.598Z,84.81
2022-10-29T07:06:13.989Z,84.78
2022-10-29T07:08:44.409Z,84.69
2022-10-29T07:11:14.963Z,84.38
2022-10-29T07:13:45.423Z,84.50
2022-10-29T07:16:15.789Z,84.56
2022-10-29T07:18:46.214Z,84.09
2022-10-29T07:21:16.584Z,84.30
2022-10-29T07:23:47.043Z,84.12
2022-10-29T07:26:17.604Z,84.05
2022-10-29T07:28:48.063Z,83.64
2022-10-29T07:31:18.453Z,83.78
2022-10-29T07:33:48.862Z,83.84
2022-10-29T07:36:19.245Z,83.89
2022-10-29T07:38:49.938Z,83.95
2022-10-29T07:41:20.260Z,83.02
2022-10-29T07:43:50.747Z,83.08
2022-10-29T07:46:21.042Z,83.12
2022-10-29T07:48:51.387Z,82.77
2022-10-29T07:51:21.979Z,82.37
2022-10-29T07:53:52.388Z,81.96
2022-10-29T07:56:22.820Z,81.64
2022-10-29T07:58:53.121Z,82.30
2022-10-29T08:01:23.585Z,82.25
2022-10-29T08:03:54.125Z,81.96
2022-10-29T08:06:24.504Z,82.20
2022-10-29T08:08:55.981Z,81.90
2022-10-29T08:11:26.346Z,81.97
2022-10-29T08:13:56.778Z,81.46
2022-10-29T08:16:27.325Z,81.36
2022-10-29T08:18:57.852Z,81.21
2022-10-29T08:21:28.203Z,81.45
2022-10-29T08:23:58.603Z,81.36
2022-10-29T08:26:29.012Z,81.04
2022-10-29T08:28:59.323Z,80.94
2022-10-29T08:31:29.740Z,81.02
2022-10-29T08:34:00.128Z,80.25
2022-10-29T08:36:30.435Z,80.61
2022-10-29T08:39:00.862Z,80.06
2022-10-29T08:41:52.327Z,79.83
2022-10-29T08:44:45.338Z,79.36
2022-10-29T08:47:20.757Z,78.44
2022-10-29T08:50:02.739Z,77.96
2022-10-29T08:52:36.208Z,77.78
2022-10-29T08:55:18.819Z,77.92
2022-10-29T08:58:00.684Z,77.04
2022-10-29T09:00:38.656Z,77.36
2022-10-29T09:03:13.895Z,77.10
2022-10-29T09:05:59.799Z,75.33
2022-10-29T09:08:38.742Z,73.66
2022-10-29T09:11:30.231Z,71.89
2022-10-29T09:14:20.435Z,70.15
2022-10-29T09:16:59.671Z,68.92
2022-10-29T09:19:54.257Z,67.05
2022-10-29T09:22:38.940Z,65.93
2022-10-29T09:25:18.248Z,68.31
2022-10-29T09:28:13.012Z,68.44
2022-10-29T09:30:52.218Z,67.27
2022-10-29T09:33:24.762Z,67.74
2022-10-29T09:35:58.273Z,67.31
2022-10-29T09:38:34.548Z,65.19
2022-10-29T09:41:05.512Z,63.57
2022-10-29T09:43:47.693Z,62.68
2022-10-29T09:46:23.883Z,63.46
2022-10-29T09:48:57.439Z,63.84
2022-10-29T09:51:36.879Z,64.11
2022-10-29T09:54:07.565Z,67.00
2022-10-29T09:56:41.030Z,66.95
2022-10-29T09:59:14.490Z,67.79
2022-10-29T10:01:46.453Z,68.11
2022-10-29T10:04:31.322Z,69.19
2022-10-29T10:07:13.711Z,69.35
2022-10-29T10:09:58.344Z,68.87
2022-10-29T10:12:40.591Z,70.02
2022-10-29T10:15:22.911Z,70.38
2022-10-29T10:18:07.984Z,71.89
2022-10-29T10:20:47.125Z,72.00
2022-10-29T10:23:21.504Z,71.42
2022-10-29T10:26:00.388Z,70.63
2022-10-29T10:28:31.494Z,69.72
2022-10-29T10:31:17.872Z,68.95
2022-10-29T10:33:54.263Z,65.34
2022-10-29T10:36:30.206Z,61.74
2022-10-29T10:39:01.288Z,62.43
2022-10-29T10:41:35.079Z,62.96
2022-10-29T10:44:06.423Z,63.59
2022-10-29T10:46:40.028Z,64.34
2022-10-29T10:49:16.049Z,62.01
2022-10-29T10:51:49.283Z,61.84
2022-10-29T10:54:28.878Z,60.65
2022-10-29T10:57:04.799Z,60.80
2022-10-29T10:59:47.336Z,61.07
2022-10-29T11:02:29.828Z,62.98
2022-10-29T11:05:18.809Z,63.01
2022-10-29T11:08:07.262Z,62.61
2022-10-29T11:10:40.739Z,63.84
2022-10-29T11:13:17.322Z,64.13
2022-10-29T11:15:56.664Z,63.80
2022-10-29T11:18:35.796Z,63.63
2022-10-29T11:21:14.986Z,61.96
2022-10-29T11:24:09.694Z,58.84
2022-10-29T11:26:58.233Z,59.58
2022-10-29T11:29:34.357Z,60.46
2022-10-29T11:32:32.020Z,62.08
2022-10-29T11:35:14.544Z,64.75
2022-10-29T11:38:00.171Z,64.96
2022-10-29T11:40:46.223Z,64.36
2022-10-29T11:43:19.262Z,64.30
2022-10-29T11:46:05.007Z,64.49
2022-10-29T11:48:41.265Z,65.70
2022-10-29T11:51:23.471Z,66.28
2022-10-29T11:54:05.723Z,66.09
2022-10-29T11:56:57.326Z,65.38
2022-10-29T11:59:52.046Z,65.78
2022-10-29T12:02:57.461Z,65.59
2022-10-29T12:05:37.076Z,65.16
2022-10-29T12:08:16.722Z,65.21
2022-10-29T12:10:53.053Z,64.13
2022-10-29T12:13:26.595Z,64.63
2022-10-29T12:16:08.634Z,64.00
2022-10-29T12:18:56.897Z,63.63
2022-10-29T12:21:33.307Z,64.05
2022-10-29T12:24:35.788Z,64.41
2022-10-29T12:27:18.262Z,64.08
2022-10-29T12:30:06.392Z,63.96
2022-10-29T12:32:55.650Z,64.94
2022-10-29T12:35:44.257Z,65.51
2022-10-29T12:38:35.492Z,65.34
2022-10-29T12:41:08.886Z,65.96
2022-10-29T12:43:41.570Z,65.93
2022-10-29T12:46:40.993Z,65.88
2022-10-29T12:49:29.341Z,66.45
2022-10-29T12:52:02.821Z,66.16
2022-10-29T12:54:38.875Z,66.79
2022-10-29T12:57:18.418Z,66.48
2022-10-29T12:59:49.274Z,66.20
2022-10-29T13:02:41.084Z,66.23
2022-10-29T13:05:13.869Z,66.07
2022-10-29T13:07:49.964Z,66.17
2022-10-29T13:10:35.246Z,65.96
2022-10-29T13:13:20.945Z,65.74
2022-10-29T13:16:05.977Z,64.94
2022-10-29T13:18:42.353Z,65.53
2022-10-29T13:21:12.970Z,63.48
2022-10-29T13:23:46.376Z,63.84
2022-10-29T13:26:19.857Z,64.45
2022-10-29T13:28:52.550Z,66.01
2022-10-29T13:31:25.993Z,66.33
2022-10-29T13:33:56.451Z,66.90
2022-10-29T13:36:31.855Z,67.31
2022-10-29T13:39:08.292Z,67.67
2022-10-29T13:41:46.287Z,67.47
2022-10-29T13:44:25.312Z,66.98
2022-10-29T13:47:04.939Z,66.95
2022-10-29T13:49:45.938Z,66.43
2022-10-29T13:52:22.069Z,66.40
2022-10-29T13:55:01.337Z,66.70
2022-10-29T13:57:46.575Z,67.00
2022-10-29T14:00:20.281Z,67.51
2022-10-29T14:03:05.093Z,68.00
2022-10-29T14:05:41.135Z,67.31
2022-10-29T14:08:23.236Z,67.55
2022-10-29T14:10:57.979Z,67.90
2022-10-29T14:13:34.223Z,68.68
2022-10-29T14:16:07.669Z,68.69
2022-10-29T14:18:45.734Z,68.60
2022-10-29T14:21:24.445Z,68.54
2022-10-29T14:24:08.747Z,69.31
2022-10-29T14:26:41.912Z,69.21
2022-10-29T14:29:26.364Z,69.32
2022-10-29T14:32:19.739Z,69.67
2022-10-29T14:34:51.951Z,69.97
2022-10-29T14:37:25.407Z,70.20
2022-10-29T14:39:59.317Z,70.22
2022-10-29T14:42:47.830Z,70.45
2022-10-29T14:45:28.376Z,70.76
2022-10-29T14:48:05.305Z,71.11
2022-10-29T14:50:36.309Z,71.84
2022-10-29T14:53:09.388Z,71.87
2022-10-29T14:55:41.937Z,71.96
2022-10-29T14:58:27.079Z,71.75
2022-10-29T15:01:00.229Z,72.35
2022-10-29T15:03:35.664Z,72.55
2022-10-29T15:06:22.016Z,72.93
2022-10-29T15:09:07.411Z,72.93
2022-10-29T15:11:40.777Z,73.26
2022-10-29T15:14:37.905Z,73.45
2022-10-29T15:17:11.561Z,73.74
2022-10-29T15:19:45.665Z,73.88
2022-10-29T15:22:19.127Z,74.04
2022-10-29T15:24:51.268Z,74.16
2022-10-29T15:27:24.440Z,74.68
2022-10-29T15:29:56.227Z,74.93
2022-10-29T15:32:31.419Z,75.20
2022-10-29T15:35:01.378Z,75.40
2022-10-29T15:37:43.973Z,75.91
2022-10-29T15:40:19.170Z,76.10
2022-10-29T15:42:50.028Z,76.19
2022-10-29T15:45:28.959Z,76.29
2022-10-29T15:48:12.156Z,76.42
2022-10-29T15:50:45.491Z,76.67
2022-10-29T15:53:17.839Z,77.13
2022-10-29T15:55:51.816Z,77.50
2022-10-29T15:58:23.510Z,77.51
2022-10-29T16:00:53.887Z,77.24
2022-10-29T16:03:26.782Z,77.84
2022-10-29T16:06:03.691Z,77.11
2022-10-29T16:08:42.199Z,77.14
2022-10-29T16:11:15.245Z,77.32
2022-10-29T16:13:48.986Z,77.60
2022-10-29T16:16:20.324Z,77.02
2022-10-29T16:18:51.971Z,77.50
2022-10-29T16:21:25.522Z,77.05
2022-10-29T16:23:56.064Z,77.07
2022-10-29T16:26:27.490Z,77.13
2022-10-29T16:28:57.905Z,77.39
2022-10-29T16:31:29.944Z,78.00
2022-10-29T16:34:03.365Z,77.83
2022-10-29T16:36:33.729Z,78.05
2022-10-29T16:39:04.114Z,78.86
2022-10-29T16:41:35.560Z,78.85
2022-10-29T16:44:05.997Z,78.73
2022-10-29T16:46:36.415Z,78.80
2022-10-29T16:49:06.812Z,78.87
2022-10-29T16:51:37.208Z,79.17
2022-10-29T16:54:07.621Z,79.47
2022-10-29T16:56:37.941Z,79.67
2022-10-29T16:59:08.511Z,79.57
2022-10-29T17:01:38.908Z,79.95
2022-10-29T17:04:09.446Z,79.96
2022-10-29T17:06:39.880Z,79.69
2022-10-29T17:09:10.272Z,79.92
2022-10-29T17:11:40.782Z,80.04
2022-10-29T17:14:11.339Z,79.85
2022-10-29T17:16:41.737Z,80.00
2022-10-29T17:19:12.237Z,80.24
2022-10-29T17:21:42.901Z,80.09
2022-10-29T17:24:13.304Z,80.09
2022-10-29T17:26:43.774Z,80.01
2022-10-29T17:29:14.173Z,80.26
2022-10-29T17:31:44.658Z,80.17
2022-10-29T17:34:14.983Z,80.03
2022-10-29T17:36:45.299Z,80.33
2022-10-29T17:39:15.798Z,80.19
2022-10-29T17:41:46.132Z,80.38
2022-10-29T17:44:16.649Z,80.23
2022-10-29T17:46:47.040Z,80.30
2022-10-29T17:49:17.434Z,80.21
2022-10-29T17:51:47.893Z,80.44
2022-10-29T17:54:18.610Z,80.35
2022-10-29T17:56:49.084Z,80.38
2022-10-29T17:59:19.473Z,80.63
2022-10-29T18:01:50.338Z,81.07
2022-10-29T18:04:20.853Z,81.11
2022-10-29T18:06:51.365Z,81.73
2022-10-29T18:09:21.727Z,81.95
2022-10-29T18:11:52.082Z,82.03
2022-10-29T18:14:22.435Z,82.13
2022-10-29T18:16:52.896Z,82.43
2022-10-29T18:19:23.803Z,82.62
2022-10-29T18:21:54.261Z,82.90
2022-10-29T18:24:24.806Z,83.24
2022-10-29T18:26:55.139Z,83.54
2022-10-29T18:29:25.472Z,83.54
2022-10-29T18:31:55.951Z,83.75
2022-10-29T18:34:26.292Z,83.95
2022-10-29T18:36:56.607Z,83.93
2022-10-29T18:39:27.062Z,84.02
2022-10-29T18:41:57.436Z,84.09
2022-10-29T18:44:28.009Z,84.18
2022-10-29T18:46:58.536Z,84.22
2022-10-29T18:49:28.933Z,84.39
2022-10-29T18:51:59.321Z,84.41
2022-10-29T18:54:29.846Z,84.29
2022-10-29T18:57:00.405Z,84.37
2022-10-29T18:59:30.933Z,84.24
2022-10-29T19:02:01.441Z,84.24
2022-10-29T19:04:32.051Z,84.21
2022-10-29T19:07:02.432Z,84.20
2022-10-29T19:09:32.849Z,84.15
2022-10-29T19:12:03.240Z,84.15
2022-10-29T19:14:33.677Z,84.15
2022-10-29T19:17:04.064Z,84.13
2022-10-29T19:19:34.462Z,84.09
2022-10-29T19:22:04.774Z,84.11
2022-10-29T19:24:35.168Z,84.10
2022-10-29T19:27:05.593Z,84.22
2022-10-29T19:29:36.032Z,84.31
2022-10-29T19:32:06.612Z,84.28
2022-10-29T19:37:07.418Z,84.65
2022-10-29T19:39:37.858Z,84.78
2022-10-29T19:42:08.252Z,84.82
2022-10-29T19:44:38.671Z,85.19
2022-10-29T19:47:09.016Z,85.23
2022-10-29T19:49:39.453Z,85.26
2022-10-29T19:52:09.764Z,85.38
2022-10-29T19:54:40.180Z,85.46
2022-10-29T19:57:10.526Z,85.51
2022-10-29T19:59:40.895Z,85.50
2022-10-29T20:02:12.913Z,85.68
2022-10-29T20:04:43.426Z,85.86
2022-10-29T20:07:13.837Z,85.93
2022-10-29T20:09:44.181Z,86.14
2022-10-29T20:12:14.657Z,86.04
2022-10-29T20:14:45.110Z,86.03
2022-10-29T20:17:16.659Z,86.04
2022-10-29T20:19:47.263Z,86.17
2022-10-29T20:22:17.661Z,86.24
2022-10-29T20:24:48.078Z,86.31
2022-10-29T20:27:18.599Z,86.31
2022-10-29T20:29:50.748Z,86.31
2022-10-29T20:32:21.184Z,86.25
2022-10-29T20:34:52.522Z,86.17
2022-10-29T20:37:22.982Z,86.17
2022-10-29T20:39:53.504Z,85.99
2022-10-29T20:42:24.062Z,85.99
2022-10-29T20:44:54.467Z,86.06
2022-10-29T20:47:25.013Z,86.15
2022-10-29T20:49:55.373Z,86.17
2022-10-29T20:52:25.839Z,86.22
2022-10-29T20:54:56.217Z,86.24
2022-10-29T20:57:26.543Z,86.31
2022-10-29T20:59:58.476Z,86.26
2022-10-29T21:02:29.005Z,86.22
2022-10-29T21:04:59.657Z,86.17
2022-10-29T21:07:30.069Z,86.20
2022-10-29T21:10:00.585Z,86.33
2022-10-29T21:12:30.986Z,86.21
2022-10-29T21:15:01.492Z,86.24
2022-10-29T21:17:33.588Z,86.29
2022-10-29T21:20:04.182Z,86.26
2022-10-29T21:22:34.711Z,86.26
2022-10-29T21:25:05.477Z,86.23
2022-10-29T21:27:35.965Z,86.25
2022-10-29T21:30:07.472Z,86.21
2022-10-29T21:32:37.851Z,86.15
2022-10-29T21:35:09.406Z,86.07
2022-10-29T21:37:40.037Z,86.13
2022-10-29T21:40:11.368Z,86.21
2022-10-29T21:42:41.782Z,86.18
2022-10-29T21:45:12.285Z,86.24
2022-10-29T21:47:42.697Z,86.33
2022-10-29T21:50:13.143Z,86.41
2022-10-29T21:52:43.476Z,86.50
2022-10-29T21:55:14.039Z,86.59
2022-10-29T21:57:44.802Z,86.41
2022-10-29T22:00:16.993Z,86.63
2022-10-29T22:02:47.325Z,86.70
2022-10-29T22:05:18.011Z,86.59
2022-10-29T22:07:48.385Z,86.63
2022-10-29T22:10:19.174Z,86.75
2022-10-29T22:12:49.612Z,86.79
2022-10-29T22:15:20.037Z,86.72
2022-10-29T22:17:50.440Z,86.59
2022-10-29T22:20:20.842Z,86.61
2022-10-29T22:22:51.305Z,86.59
2022-10-29T22:25:21.888Z,86.40
2022-10-29T22:27:52.302Z,86.48
2022-10-29T22:30:22.937Z,86.53
2022-10-29T22:32:53.318Z,86.53
2022-10-29T22:35:23.818Z,86.73
2022-10-29T22:37:55.627Z,86.71
2022-10-29T22:40:26.484Z,86.78
2022-10-29T22:42:57.136Z,86.71
2022-10-29T22:45:28.058Z,86.78
2022-10-29T22:47:58.405Z,86.80
2022-10-29T22:50:28.854Z,86.82
2022-10-29T22:52:59.480Z,86.84
2022-10-29T22:55:31.434Z,86.88
2022-10-29T22:58:01.795Z,86.82
2022-10-29T23:00:32.233Z,86.93
2022-10-29T23:03:02.638Z,87.01
2022-10-29T23:05:33.160Z,86.99
2022-10-29T23:08:03.546Z,87.02
2022-10-29T23:10:34.137Z,87.06
2022-10-29T23:13:04.548Z,87.12
2022-10-29T23:15:34.946Z,87.18
2022-10-29T23:18:05.455Z,87.18
2022-10-29T23:20:35.806Z,87.13
2022-10-29T23:23:06.313Z,87.04
2022-10-29T23:25:36.784Z,87.17
2022-10-29T23:28:07.180Z,87.17
2022-10-29T23:30:37.610Z,87.24
2022-10-29T23:33:07.999Z,87.35
2022-10-29T23:35:38.399Z,87.32
2022-10-29T23:38:08.808Z,87.47
2022-10-29T23:40:39.089Z,87.54
2022-10-29T23:43:09.526Z,87.64
2022-10-29T23:45:42.080Z,87.75
2022-10-29T23:48:12.885Z,87.65
2022-10-29T23:50:43.472Z,87.79
2022-10-29T23:53:14.223Z,87.77
2022-10-29T23:55:45.461Z,87.89
2022-10-29T23:58:16.816Z,87.92
